Aérodrome :
LOGIN :

S'inscrire | Disclaimer

   EN    FR    IT 

 










Légende :    VFR   VFR Marginal   IFR   IFR Intensif   IFR Très Intensif
Visi : 
Plafond : 
>= 8 km
>= 3000ft
5 à 8 km
1000 à 3000 ft
1500m à 5 km
500 à 1000 ft
800 à 1500m
200 à 500 ft
< 800m
< 200 ft
Symboles :   Orages  Brouillard  Fortes neiges  Fortes précipitations  Vent > 20 kt
SIGMETs :   Divers  Orages  Givrage  Turbulence  Onde Orograph.  Cendres Volcan.







- Altitude de l'aérodrome : 1036 ft
- Code IATA : CLJ


LRCL - Cluj-Napoca International

DERNIER METAR :
  • 210100Z 08004KT 9999 OVC032 04/03 Q1015 R07/29//95

METARs EXPIRÉS :
  • 210030Z 08004KT 9999 OVC030 04/03 Q1015 R07/29//95
  • 210000Z 07004KT 040V110 9999 OVC029 04/02 Q1016 R07/29//95
  • 202330Z 08004KT 9999 OVC029 04/02 Q1016 R07/29//95
  • 202300Z 11004KT 070V140 9999 OVC026 04/02 Q1016 R07/29//95
  • 202230Z 09003KT 050V140 9999 OVC035 04/02 Q1016 R07/29//95

TAF TAF LRCL
Valide du 21 à 00h jusqu'au 21 à 09h UTC


202300Z 2100/2109 12006KT 9999 OVC055
TEMPO 2101/2106 5000 -RA BR BKN015 OVC020
Pas de NOTAMs connus pour ce terrain.



MET'MAP, la Météo Aéronautique d'un coup d'oeil ! - Copyright ORBIFLY Décembre 2007 - Disclaimer

ORBIFLY MET'MAP TEAM :

Programmation & Développement : Alexandra Zaïnal
Conception & Développement : Baudouin d'Aumeries
Co-Programmation & Développement : Marc-Olivier Méhu
Soutien technique & logistique : Manuel Goepfert

Contact : metmap@orbifly.com




SOURCES & CREDITS :

   NOAA